Time;durP1;ratioP1;P1;durP2;ratioP2;P2;SDS_P1;SDS_P2;PMS_P1;PMS_P2;Temp;Humidity;BMP_temperature;BMP_pressure;BME280_temperature;BME280_humidity;BME280_pressure;Samples;Min_cycle;Max_cycle;Signal;HPM_P1;HPM_P2
2022/09/27 00:02:13;;;;;;;5.13;0.90;;;9.90;99.90;;;;;;5031330;28;20681;-66
2022/09/27 00:04:49;;;;;;;4.85;0.70;;;9.90;99.90;;;;;;5049694;28;20041;-66
2022/09/27 00:07:19;;;;;;;3.90;0.50;;;9.90;99.90;;;;;;5034898;28;20128;-66
2022/09/27 00:09:48;;;;;;;5.25;0.80;;;9.80;99.90;;;;;;5050403;28;20040;-66
2022/09/27 00:12:14;;;;;;;5.45;0.85;;;9.80;99.90;;;;;;5033791;28;20049;-66
2022/09/27 00:14:40;;;;;;;4.20;0.88;;;9.80;99.90;;;;;;5051835;28;20111;-66
2022/09/27 00:17:07;;;;;;;11.27;1.30;;;9.70;99.90;;;;;;5071432;28;20040;-66
2022/09/27 00:19:39;;;;;;;6.78;1.15;;;9.70;99.90;;;;;;5072306;28;20083;-66
2022/09/27 00:22:07;;;;;;;7.90;1.25;;;9.70;99.90;;;;;;5038127;28;20036;-66
2022/09/27 00:24:35;;;;;;;3.97;0.77;;;9.70;99.90;;;;;;5036028;28;20448;-66
2022/09/27 00:27:05;;;;;;;3.85;0.70;;;9.70;99.90;;;;;;5072165;28;20507;-66
2022/09/27 00:29:34;;;;;;;2.17;0.57;;;9.70;99.90;;;;;;5069927;28;20044;-66
2022/09/27 00:32:00;;;;;;;2.83;0.55;;;9.60;99.90;;;;;;5053983;28;20416;-67
2022/09/27 00:34:29;;;;;;;3.97;0.60;;;9.60;99.90;;;;;;5065670;28;20139;-66
2022/09/27 00:36:58;;;;;;;3.88;0.73;;;9.50;99.90;;;;;;5069043;28;20105;-66
2022/09/27 00:39:26;;;;;;;4.07;0.50;;;9.60;99.90;;;;;;5053901;28;20070;-66
2022/09/27 00:41:53;;;;;;;3.08;0.60;;;9.60;99.90;;;;;;5053216;28;20428;-66
2022/09/27 00:44:26;;;;;;;4.18;0.60;;;9.60;99.90;;;;;;5048834;28;20261;-66
2022/09/27 00:47:24;;;;;;;5.00;0.63;;;9.60;99.90;;;;;;5054017;28;20048;-67
2022/09/27 00:49:58;;;;;;;6.38;1.65;;;9.60;99.90;;;;;;5036887;28;20052;-66
2022/09/27 00:52:59;;;;;;;3.17;0.70;;;9.60;99.90;;;;;;5054065;28;20036;-66
2022/09/27 00:55:45;;;;;;;5.00;1.23;;;9.60;99.90;;;;;;5054539;28;20373;-66
2022/09/27 00:58:18;;;;;;;7.13;0.80;;;9.60;99.90;;;;;;5071637;28;20039;-67
2022/09/27 01:00:51;;;;;;;4.88;0.50;;;9.60;99.90;;;;;;5051880;28;20040;-66
2022/09/27 01:03:33;;;;;;;6.72;0.80;;;9.60;99.90;;;;;;5053179;28;20048;-66
2022/09/27 01:06:05;;;;;;;5.13;0.85;;;9.60;99.90;;;;;;5053800;28;20045;-66
2022/09/27 01:08:34;;;;;;;6.90;0.88;;;9.60;99.90;;;;;;5053598;28;20047;-66
2022/09/27 01:11:13;;;;;;;4.57;0.60;;;9.60;99.90;;;;;;5036380;28;20056;-67
2022/09/27 01:13:55;;;;;;;8.10;0.80;;;9.60;99.90;;;;;;5054927;28;20040;-66
2022/09/27 01:16:37;;;;;;;6.95;0.73;;;9.60;99.90;;;;;;5073254;28;20420;-67
2022/09/27 01:19:17;;;;;;;4.15;0.60;;;9.60;99.90;;;;;;5072891;28;20044;-67
2022/09/27 01:22:10;;;;;;;2.60;0.77;;;9.60;99.90;;;;;;5038650;28;20388;-67
2022/09/27 01:24:51;;;;;;;5.72;0.77;;;9.60;99.90;;;;;;5062456;28;20158;-67
2022/09/27 01:27:33;;;;;;;4.97;0.88;;;9.70;99.90;;;;;;5038305;28;20048;-68
2022/09/27 01:30:25;;;;;;;2.88;0.63;;;9.70;99.90;;;;;;5052752;28;20515;-68
2022/09/27 01:33:12;;;;;;;5.32;0.88;;;9.70;99.90;;;;;;5072948;28;20101;-67
2022/09/27 01:36:07;;;;;;;5.03;0.80;;;9.70;99.90;;;;;;5054258;28;20128;-67
2022/09/27 01:39:09;;;;;;;5.32;1.00;;;9.60;99.90;;;;;;5072841;28;20103;-67
2022/09/27 01:41:51;;;;;;;5.05;0.70;;;9.60;99.90;;;;;;5072990;28;20384;-67
2022/09/27 01:44:27;;;;;;;5.05;0.98;;;9.60;99.90;;;;;;5038184;28;20045;-67
2022/09/27 01:46:57;;;;;;;7.97;1.00;;;9.60;99.90;;;;;;5072818;28;20055;-67
2022/09/27 01:49:31;;;;;;;5.95;0.60;;;9.60;99.90;;;;;;5072636;28;20094;-68
2022/09/27 01:52:03;;;;;;;5.32;1.02;;;9.60;99.90;;;;;;5054957;28;20059;-67
2022/09/27 01:54:41;;;;;;;4.88;0.80;;;9.60;99.90;;;;;;5072577;28;20076;-67
2022/09/27 01:57:10;;;;;;;6.88;1.00;;;9.60;99.90;;;;;;5072588;28;20068;-68
2022/09/27 01:59:50;;;;;;;4.72;0.88;;;9.60;99.90;;;;;;5069067;28;20558;-67
2022/09/27 02:02:21;;;;;;;2.78;0.75;;;9.60;99.90;;;;;;5054921;28;20128;-69
2022/09/27 02:04:50;;;;;;;4.57;0.60;;;9.60;99.90;;;;;;5072774;28;20071;-68
2022/09/27 02:07:26;;;;;;;4.07;0.57;;;9.60;99.90;;;;;;5054905;28;20448;-68
2022/09/27 02:10:05;;;;;;;3.13;0.52;;;9.60;99.90;;;;;;5072488;28;20040;-69
2022/09/27 02:12:37;;;;;;;4.13;0.60;;;9.60;99.90;;;;;;5054464;28;20041;-69
2022/09/27 02:15:08;;;;;;;3.83;0.40;;;9.50;99.90;;;;;;5034520;28;20099;-68
2022/09/27 02:17:42;;;;;;;2.30;0.43;;;9.50;99.90;;;;;;5052359;28;20032;-68
2022/09/27 02:20:29;;;;;;;3.38;0.57;;;9.50;99.90;;;;;;5034502;28;20075;-68
2022/09/27 02:23:00;;;;;;;2.10;0.43;;;9.40;99.90;;;;;;5052294;28;20045;-68
2022/09/27 02:25:33;;;;;;;2.35;0.50;;;9.40;99.90;;;;;;5034598;28;20477;-68
2022/09/27 02:28:20;;;;;;;2.50;0.65;;;9.40;99.90;;;;;;5034428;28;20166;-68
2022/09/27 02:30:46;;;;;;;2.72;0.60;;;9.40;99.90;;;;;;5032245;28;20246;-67
2022/09/27 02:33:12;;;;;;;2.08;0.43;;;9.40;99.90;;;;;;5052051;28;20158;-68
2022/09/27 02:35:37;;;;;;;1.42;0.55;;;9.40;99.90;;;;;;5034380;28;20049;-68
2022/09/27 02:38:05;;;;;;;4.18;0.55;;;9.40;99.90;;;;;;5034341;28;20102;-67
2022/09/27 02:40:34;;;;;;;4.95;0.60;;;9.30;99.90;;;;;;5034576;28;20090;-67
2022/09/27 02:43:03;;;;;;;1.38;0.30;;;9.40;99.90;;;;;;5052236;28;20442;-67
2022/09/27 02:46:02;;;;;;;1.30;0.50;;;9.30;99.90;;;;;;5052109;28;20049;-67
2022/09/27 02:48:46;;;;;;;2.50;0.45;;;9.30;99.90;;;;;;5018431;28;20477;-67
2022/09/27 02:51:58;;;;;;;1.15;0.40;;;9.30;99.90;;;;;;5055639;28;20045;-67
2022/09/27 02:54:46;;;;;;;3.17;0.35;;;9.30;99.90;;;;;;5034530;28;20049;-67
2022/09/27 02:57:40;;;;;;;2.42;0.57;;;9.30;99.90;;;;;;5038031;28;20040;-67
2022/09/27 03:00:11;;;;;;;2.35;0.40;;;9.20;99.90;;;;;;5035520;28;20586;-67
2022/09/27 03:03:05;;;;;;;3.10;0.38;;;9.20;99.90;;;;;;5055404;28;20080;-67
2022/09/27 03:05:49;;;;;;;1.35;0.47;;;9.20;99.90;;;;;;5021077;28;20043;-67
2022/09/27 03:08:16;;;;;;;2.92;0.40;;;9.20;99.90;;;;;;5037463;28;20136;-67
2022/09/27 03:10:41;;;;;;;2.80;0.40;;;9.20;99.90;;;;;;5037311;28;20095;-66
2022/09/27 03:13:08;;;;;;;1.50;0.50;;;9.20;99.90;;;;;;5037112;28;20049;-67
2022/09/27 03:15:34;;;;;;;2.15;0.45;;;9.10;99.90;;;;;;5037641;28;20448;-67
2022/09/27 03:18:01;;;;;;;6.18;0.50;;;9.10;99.90;;;;;;5055181;28;20548;-67
2022/09/27 03:20:27;;;;;;;4.95;0.77;;;9.00;99.90;;;;;;5037569;28;20090;-67
2022/09/27 03:22:55;;;;;;;4.20;0.57;;;9.00;99.90;;;;;;5055206;28;20052;-67
2022/09/27 03:25:21;;;;;;;3.72;0.70;;;9.00;99.90;;;;;;5037060;28;20041;-67
2022/09/27 03:27:47;;;;;;;2.75;0.45;;;9.00;99.90;;;;;;5020706;28;20045;-67
2022/09/27 03:30:13;;;;;;;4.07;0.60;;;8.90;99.90;;;;;;5035334;28;20040;-67
2022/09/27 03:32:43;;;;;;;2.20;0.45;;;8.90;99.90;;;;;;5054874;28;20491;-67
2022/09/27 03:35:10;;;;;;;3.60;0.50;;;8.90;99.90;;;;;;5054990;28;20037;-66
2022/09/27 03:37:36;;;;;;;4.63;0.90;;;8.80;99.90;;;;;;5020473;28;20070;-67
2022/09/27 03:40:02;;;;;;;7.43;0.70;;;8.80;99.90;;;;;;5037026;28;20048;-67
2022/09/27 03:42:28;;;;;;;2.97;0.60;;;8.90;99.90;;;;;;5036844;28;20041;-67
2022/09/27 03:44:54;;;;;;;5.28;0.80;;;8.80;99.90;;;;;;5054878;28;20048;-67
2022/09/27 03:47:21;;;;;;;2.30;0.57;;;8.80;99.90;;;;;;5036777;28;20047;-67
2022/09/27 03:49:46;;;;;;;6.97;0.60;;;8.80;99.90;;;;;;5036525;28;20470;-67
2022/09/27 03:52:13;;;;;;;2.47;0.70;;;8.80;99.90;;;;;;5020095;28;20048;-67
2022/09/27 03:54:40;;;;;;;2.55;0.57;;;8.80;99.90;;;;;;5054380;28;20037;-67
2022/09/27 03:57:06;;;;;;;5.80;0.50;;;8.80;99.90;;;;;;5053547;28;20033;-67
2022/09/27 03:59:31;;;;;;;3.72;0.70;;;8.80;99.90;;;;;;5033885;28;20883;-67
2022/09/27 04:01:57;;;;;;;3.28;0.50;;;8.70;99.90;;;;;;5036466;28;20033;-67
2022/09/27 04:04:23;;;;;;;3.40;0.50;;;8.70;99.90;;;;;;5036474;28;20049;-67
2022/09/27 04:06:49;;;;;;;4.07;0.70;;;8.70;99.90;;;;;;5036358;28;20045;-67
2022/09/27 04:09:15;;;;;;;4.35;0.50;;;8.60;99.90;;;;;;5036314;28;20053;-67
2022/09/27 04:11:41;;;;;;;3.28;0.52;;;8.60;99.90;;;;;;5054387;28;20037;-67
2022/09/27 04:14:07;;;;;;;7.18;1.00;;;8.60;99.90;;;;;;5066801;28;20049;-67
2022/09/27 04:16:34;;;;;;;3.97;0.85;;;8.50;99.90;;;;;;5056167;28;20044;-68
2022/09/27 04:19:03;;;;;;;81.82;4.35;;;8.40;99.90;;;;;;5056018;28;20102;-67
2022/09/27 04:21:28;;;;;;;3.03;0.50;;;8.40;99.90;;;;;;5056058;28;20093;-67
2022/09/27 04:23:54;;;;;;;9.48;0.90;;;8.30;99.90;;;;;;5055843;28;20036;-67
2022/09/27 04:26:21;;;;;;;2.67;0.47;;;8.30;99.90;;;;;;5055875;28;20049;-67
2022/09/27 04:28:46;;;;;;;8.15;0.75;;;8.30;99.90;;;;;;5055933;28;20053;-67
2022/09/27 04:31:12;;;;;;;6.15;0.80;;;8.20;99.90;;;;;;5037094;28;20046;-67
2022/09/27 04:33:38;;;;;;;3.08;0.47;;;8.20;99.90;;;;;;5073557;28;20087;-67
2022/09/27 04:38:50;;;;;;;2.70;0.50;;;8.00;99.90;;;;;;5055878;28;20040;-67
2022/09/27 04:41:16;;;;;;;4.40;0.73;;;8.00;99.90;;;;;;5073509;28;20040;-68
2022/09/27 04:43:42;;;;;;;4.50;0.70;;;7.90;99.90;;;;;;5039040;28;20059;-67
2022/09/27 04:46:07;;;;;;;3.53;0.60;;;7.90;99.90;;;;;;5055558;28;20037;-67
2022/09/27 04:48:33;;;;;;;4.15;0.70;;;7.70;99.90;;;;;;5055472;28;20041;-67
2022/09/27 04:51:04;;;;;;;2.67;0.50;;;7.70;99.90;;;;;;5055460;28;20128;-67
2022/09/27 04:53:30;;;;;;;;;;;7.60;99.90;;;;;;5073925;28;20084;-68
2022/09/27 04:56:04;;;;;;;3.83;0.80;;;7.50;99.90;;;;;;5073474;28;20307;-68
2022/09/27 04:58:30;;;;;;;3.75;0.50;;;7.40;99.90;;;;;;5039111;28;20381;-68
2022/09/27 05:00:56;;;;;;;5.05;0.70;;;7.40;99.90;;;;;;5036793;28;20381;-67
2022/09/27 05:03:22;;;;;;;4.85;0.80;;;7.40;99.90;;;;;;5055185;28;20044;-67
2022/09/27 05:05:48;;;;;;;4.38;0.98;;;7.40;99.90;;;;;;5055197;28;20082;-67
2022/09/27 05:08:13;;;;;;;6.05;0.80;;;7.40;99.90;;;;;;5055143;28;20119;-67
2022/09/27 05:10:39;;;;;;;6.50;0.98;;;7.30;99.90;;;;;;5072447;28;20089;-68
2022/09/27 05:13:05;;;;;;;6.82;1.00;;;7.30;99.90;;;;;;5072823;28;20060;-68
2022/09/27 05:15:31;;;;;;;6.70;0.95;;;7.40;99.90;;;;;;5055338;28;20048;-67
2022/09/27 05:17:58;;;;;;;10.50;1.15;;;7.40;99.90;;;;;;5072900;28;20052;-67
2022/09/27 05:20:24;;;;;;;4.10;1.10;;;7.40;99.90;;;;;;5072961;28;20534;-68
2022/09/27 05:22:51;;;;;;;4.28;0.93;;;7.40;99.90;;;;;;5072908;28;20128;-68
2022/09/27 05:25:17;;;;;;;8.45;1.25;;;7.40;99.90;;;;;;5055227;28;20114;-67
2022/09/27 05:27:43;;;;;;;4.75;0.90;;;7.40;99.90;;;;;;5072974;28;20044;-67
2022/09/27 05:30:10;;;;;;;20.63;1.50;;;7.40;99.90;;;;;;5052859;28;20054;-68
2022/09/27 05:32:42;;;;;;;3.25;0.80;;;7.30;99.90;;;;;;5054652;28;20051;-68
2022/09/27 05:35:08;;;;;;;5.68;0.95;;;7.30;99.90;;;;;;5055163;28;20036;-68
2022/09/27 05:37:35;;;;;;;7.95;1.13;;;7.30;99.90;;;;;;5038180;28;20040;-68
2022/09/27 05:40:01;;;;;;;10.18;1.30;;;7.30;99.90;;;;;;5054845;28;20070;-68
2022/09/27 05:42:27;;;;;;;4.97;1.20;;;7.30;99.90;;;;;;5038233;28;20041;-68
2022/09/27 05:44:53;;;;;;;4.10;1.02;;;7.30;99.90;;;;;;5055030;28;20048;-68
2022/09/27 05:47:18;;;;;;;13.40;1.50;;;7.30;99.90;;;;;;5054910;28;20551;-68
2022/09/27 05:49:44;;;;;;;6.32;1.20;;;7.30;99.90;;;;;;5072606;28;20465;-68
2022/09/27 05:52:10;;;;;;;4.30;1.00;;;7.30;99.90;;;;;;5072840;28;20076;-68
2022/09/27 05:54:36;;;;;;;5.10;0.93;;;7.30;99.90;;;;;;5054541;28;20102;-68
2022/09/27 05:57:02;;;;;;;7.57;1.10;;;7.30;99.90;;;;;;5054883;28;20423;-68
2022/09/27 05:59:28;;;;;;;6.30;1.00;;;7.40;99.90;;;;;;5070442;28;20052;-68
2022/09/27 06:01:54;;;;;;;4.55;1.30;;;7.40;99.90;;;;;;5072482;28;20040;-68
2022/09/27 06:04:20;;;;;;;3.85;1.27;;;7.50;99.90;;;;;;5054828;28;20048;-68
2022/09/27 06:06:46;;;;;;;4.53;1.73;;;7.60;99.90;;;;;;5054835;28;20353;-68
2022/09/27 06:09:14;;;;;;;7.63;1.90;;;7.60;99.90;;;;;;5037953;28;20041;-67
2022/09/27 06:11:42;;;;;;;13.00;1.27;;;7.70;99.90;;;;;;5072453;28;20123;-68
2022/09/27 06:14:08;;;;;;;5.07;0.90;;;7.70;99.90;;;;;;5041320;28;20554;-68
2022/09/27 06:16:34;;;;;;;4.68;1.15;;;7.80;99.90;;;;;;5052637;28;20124;-68
2022/09/27 06:19:00;;;;;;;5.80;1.10;;;7.80;99.90;;;;;;5034884;28;20045;-67
2022/09/27 06:21:27;;;;;;;5.82;0.90;;;7.90;99.90;;;;;;5019393;28;20424;-67
2022/09/27 06:23:54;;;;;;;4.25;0.80;;;7.90;99.90;;;;;;5057645;28;20114;-67
2022/09/27 06:26:20;;;;;;;8.30;1.20;;;7.90;99.90;;;;;;5039835;28;20053;-67
2022/09/27 06:28:46;;;;;;;4.50;0.63;;;7.90;99.90;;;;;;5057657;28;20063;-67
2022/09/27 06:31:13;;;;;;;2.38;0.90;;;8.00;99.90;;;;;;5055077;28;20362;-67
2022/09/27 06:33:39;;;;;;;4.47;0.70;;;8.10;99.90;;;;;;5039156;28;20049;-68
2022/09/27 06:36:06;;;;;;;4.82;0.73;;;8.10;99.90;;;;;;5038826;28;20093;-67
2022/09/27 06:38:33;;;;;;;2.35;0.65;;;8.20;99.90;;;;;;5021932;28;20059;-67
2022/09/27 06:41:05;;;;;;;4.38;0.98;;;8.30;99.90;;;;;;5040165;28;20120;-68
2022/09/27 06:43:32;;;;;;;2.10;0.70;;;8.40;99.90;;;;;;5039888;28;20560;-68
2022/09/27 06:46:05;;;;;;;2.28;0.40;;;8.50;99.90;;;;;;5023612;28;20044;-68
2022/09/27 06:48:33;;;;;;;3.13;0.50;;;8.60;99.90;;;;;;5039419;28;20033;-67
2022/09/27 06:50:59;;;;;;;3.50;0.80;;;8.70;99.90;;;;;;5038842;28;20045;-68
2022/09/27 06:53:25;;;;;;;9.10;4.20;;;8.90;99.90;;;;;;5056677;28;20119;-68
2022/09/27 06:55:51;;;;;;;12.73;7.20;;;9.00;99.90;;;;;;5056222;28;20044;-67
2022/09/27 07:01:04;;;;;;;3.63;0.77;;;9.20;99.90;;;;;;5036296;28;20041;-67
2022/09/27 07:03:34;;;;;;;2.70;0.60;;;9.30;99.90;;;;;;5038244;28;20070;-67
2022/09/27 07:06:01;;;;;;;;;;;9.50;99.90;;;;;;5038974;28;20451;-68
2022/09/27 07:08:28;;;;;;;6.15;2.05;;;9.60;99.90;;;;;;5056133;28;19928;-67
2022/09/27 07:10:55;;;;;;;2.92;2.08;;;9.80;99.90;;;;;;5021292;28;20049;-67
2022/09/27 07:13:21;;;;;;;18.92;6.97;;;10.00;99.90;;;;;;5037511;28;20055;-67
2022/09/27 07:15:48;;;;;;;26.25;11.52;;;10.20;99.90;;;;;;5037773;28;20079;-68
2022/09/27 07:18:14;;;;;;;8.05;3.38;;;10.40;99.90;;;;;;5037668;28;20512;-67
2022/09/27 07:20:40;;;;;;;12.23;4.63;;;10.60;99.90;;;;;;5038100;28;20041;-68
2022/09/27 07:23:07;;;;;;;21.20;11.20;;;10.80;99.90;;;;;;5055900;28;20550;-68
2022/09/27 07:25:33;;;;;;;25.08;15.15;;;11.00;99.90;;;;;;5038573;28;20075;-67
2022/09/27 07:28:15;;;;;;;8.98;4.00;;;11.20;99.90;;;;;;5022406;28;20040;-68
2022/09/27 07:30:41;;;;;;;2.55;0.90;;;11.30;99.90;;;;;;5036747;28;20055;-68
2022/09/27 07:33:08;;;;;;;2.75;0.65;;;11.40;99.90;;;;;;5056577;28;20115;-67
2022/09/27 07:35:38;;;;;;;1.95;0.60;;;11.40;99.90;;;;;;5056252;28;20037;-68
2022/09/27 07:38:07;;;;;;;2.65;0.40;;;11.40;99.90;;;;;;5056406;28;20052;-68
2022/09/27 07:40:37;;;;;;;0.68;0.40;;;11.40;99.90;;;;;;5056297;28;20382;-67
2022/09/27 07:43:03;;;;;;;2.05;0.50;;;11.30;99.90;;;;;;5055880;28;20049;-67
2022/09/27 07:45:30;;;;;;;2.38;0.60;;;11.30;99.90;;;;;;5080626;28;20040;-67
2022/09/27 07:47:56;;;;;;;3.25;1.05;;;11.20;99.90;;;;;;5081619;28;20476;-66
2022/09/27 07:50:22;;;;;;;2.40;1.10;;;11.20;99.90;;;;;;5066926;28;20047;-67
2022/09/27 07:52:50;;;;;;;5.50;1.13;;;11.20;99.90;;;;;;5083160;28;20549;-66
2022/09/27 07:55:16;;;;;;;3.72;1.23;;;11.20;99.90;;;;;;5065659;28;20076;-66
2022/09/27 07:57:45;;;;;;;2.63;0.60;;;11.20;99.90;;;;;;5084019;28;20040;-66
2022/09/27 08:00:14;;;;;;;3.72;0.65;;;11.20;99.90;;;;;;5081167;28;20039;-65
2022/09/27 08:02:41;;;;;;;5.18;0.80;;;11.10;99.90;;;;;;5065013;28;20500;-66
2022/09/27 08:05:08;;;;;;;3.35;0.50;;;11.10;99.90;;;;;;5065417;28;20038;-66
2022/09/27 08:07:35;;;;;;;4.55;0.70;;;11.20;99.90;;;;;;5066419;28;20041;-65
2022/09/27 08:10:00;;;;;;;3.47;0.60;;;11.30;99.90;;;;;;5045311;28;20617;-66
2022/09/27 08:12:29;;;;;;;3.50;0.60;;;11.40;99.90;;;;;;5065727;28;20047;-67
2022/09/27 08:15:00;;;;;;;2.72;0.63;;;11.40;99.90;;;;;;5084117;28;20059;-66
2022/09/27 08:17:27;;;;;;;1.88;0.52;;;11.40;99.90;;;;;;5066566;28;20040;-66
2022/09/27 08:19:53;;;;;;;1.60;0.45;;;11.30;99.90;;;;;;5083342;28;20573;-66
2022/09/27 08:22:20;;;;;;;2.13;0.70;;;11.30;99.90;;;;;;5048894;28;20036;-66
2022/09/27 08:24:46;;;;;;;4.05;0.60;;;11.10;99.90;;;;;;5081632;28;20128;-66
2022/09/27 08:27:12;;;;;;;1.73;0.50;;;11.00;99.90;;;;;;5047657;28;20076;-66
2022/09/27 08:29:40;;;;;;;2.67;0.60;;;11.00;99.90;;;;;;5062549;28;20036;-66
2022/09/27 08:32:10;;;;;;;2.92;0.70;;;11.00;99.90;;;;;;5082394;28;20036;-66
2022/09/27 08:34:36;;;;;;;2.65;0.50;;;10.90;99.90;;;;;;5081554;28;20052;-66
2022/09/27 08:37:03;;;;;;;1.88;0.50;;;10.90;99.90;;;;;;5080016;28;20090;-66
2022/09/27 08:39:29;;;;;;;2.92;0.60;;;10.80;99.90;;;;;;5082200;28;20028;-66
2022/09/27 08:42:38;;;;;;;4.55;0.93;;;10.90;99.90;;;;;;5083270;28;20538;-66
2022/09/27 08:45:28;;;;;;;3.47;0.52;;;10.90;99.90;;;;;;5079679;28;20091;-66
2022/09/27 08:47:59;;;;;;;5.38;0.75;;;10.90;99.90;;;;;;5064336;28;20047;-66
2022/09/27 08:50:27;;;;;;;3.60;0.63;;;10.80;99.90;;;;;;5064057;28;20081;-66
2022/09/27 08:53:18;;;;;;;1.63;0.30;;;10.80;99.90;;;;;;5063627;28;20044;-65
2022/09/27 08:55:51;;;;;;;4.55;1.63;;;10.80;99.90;;;;;;5037488;28;20040;-66
2022/09/27 08:58:48;;;;;;;3.00;0.50;;;10.80;99.90;;;;;;5081489;28;20372;-66
2022/09/27 09:01:15;;;;;;;3.28;0.65;;;10.80;99.90;;;;;;5078850;28;20449;-66
2022/09/27 09:03:54;;;;;;;4.85;1.30;;;10.90;99.90;;;;;;5064192;28;20102;-66
2022/09/27 09:06:48;;;;;;;4.47;1.67;;;11.00;99.90;;;;;;5075120;28;20052;-66
2022/09/27 09:09:40;;;;;;;3.63;0.70;;;11.00;99.90;;;;;;5064493;28;20066;-66
2022/09/27 09:15:53;;;;;;;4.60;0.70;;;11.20;99.90;;;;;;5081094;28;20742;-66
2022/09/27 09:18:48;;;;;;;2.15;0.60;;;11.40;99.90;;;;;;5061996;28;20044;-64
2022/09/27 09:21:23;;;;;;;1.65;0.40;;;11.60;99.90;;;;;;5081713;28;20040;-64
2022/09/27 09:24:11;;;;;;;3.45;0.50;;;11.90;99.90;;;;;;5082146;28;20085;-64
2022/09/27 09:26:55;;;;;;;6.78;0.80;;;12.00;99.90;;;;;;5080024;28;20079;-66
2022/09/27 09:30:00;;;;;;;4.75;0.70;;;12.20;99.90;;;;;;5045482;28;20040;-66
2022/09/27 09:32:51;;;;;;;3.13;0.47;;;12.40;99.90;;;;;;5081948;28;20032;-66
2022/09/27 09:35:20;;;;;;;4.35;0.50;;;12.40;99.90;;;;;;5081289;28;20036;-66
2022/09/27 09:37:56;;;;;;;3.72;0.50;;;12.40;99.90;;;;;;5062967;28;20125;-66
2022/09/27 09:40:41;;;;;;;1.83;0.40;;;12.40;99.90;;;;;;5062759;28;20166;-66
2022/09/27 09:43:31;;;;;;;3.72;0.50;;;12.40;99.90;;;;;;5080596;28;20051;-66
2022/09/27 09:46:05;;;;;;;2.83;0.57;;;12.30;99.90;;;;;;5063692;28;20047;-67
2022/09/27 09:48:44;;;;;;;3.53;0.77;;;12.30;99.90;;;;;;5078317;28;20514;-66
2022/09/27 09:51:16;;;;;;;4.65;1.30;;;12.40;99.90;;;;;;5081144;28;20507;-67
2022/09/27 09:54:14;;;;;;;5.07;2.80;;;12.50;99.90;;;;;;5082003;28;20537;-67
2022/09/27 09:56:47;;;;;;;3.25;1.42;;;12.60;99.90;;;;;;5074492;28;20378;-67
2022/09/27 09:59:23;;;;;;;3.88;1.35;;;12.70;99.90;;;;;;5084510;28;20040;-68
2022/09/27 10:01:49;;;;;;;5.00;2.03;;;12.80;99.90;;;;;;5084161;28;20039;-68
2022/09/27 10:04:25;;;;;;;3.28;1.35;;;13.00;99.90;;;;;;5067351;28;20408;-68
2022/09/27 10:06:52;;;;;;;3.08;1.30;;;13.10;99.90;;;;;;5065991;28;20552;-69
2022/09/27 10:09:24;;;;;;;1.70;0.98;;;13.30;99.90;;;;;;5068412;28;20130;-68
2022/09/27 10:11:52;;;;;;;2.78;1.08;;;13.20;99.90;;;;;;5085358;28;20544;-69
2022/09/27 10:14:20;;;;;;;3.92;0.60;;;12.90;99.90;;;;;;5085143;28;20060;-70
2022/09/27 10:16:54;;;;;;;1.15;0.30;;;12.50;99.90;;;;;;5067376;28;20497;-70
2022/09/27 10:19:29;;;;;;;0.70;0.20;;;12.10;99.90;;;;;;5084673;28;20036;-69
2022/09/27 10:22:19;;;;;;;2.05;0.70;;;12.00;99.90;;;;;;5085225;28;20052;-69
2022/09/27 10:25:03;;;;;;;1.08;0.30;;;11.80;99.90;;;;;;5071045;28;20624;-70
2022/09/27 10:27:47;;;;;;;2.30;0.43;;;11.70;99.90;;;;;;5084364;28;20384;-67
2022/09/27 10:30:31;;;;;;;2.60;0.43;;;11.60;99.90;;;;;;5082065;28;20032;-68
2022/09/27 10:33:03;;;;;;;0.95;0.35;;;11.40;99.90;;;;;;5083470;28;20032;-67
2022/09/27 10:35:29;;;;;;;3.63;0.88;;;11.30;99.90;;;;;;5083712;28;20451;-66
2022/09/27 10:38:20;;;;;;;3.78;0.65;;;11.20;99.90;;;;;;5067076;28;20048;-67
2022/09/27 10:40:49;;;;;;;0.35;0.20;;;11.20;99.90;;;;;;5064941;28;20043;-67
2022/09/27 10:43:33;;;;;;;0.88;0.30;;;11.20;99.90;;;;;;5066582;28;20063;-66
2022/09/27 10:46:08;;;;;;;1.48;0.30;;;11.40;99.90;;;;;;5063722;28;20051;-68
2022/09/27 10:48:36;;;;;;;0.65;0.25;;;11.70;99.90;;;;;;5044875;28;20076;-67
2022/09/27 10:51:05;;;;;;;1.50;0.20;;;12.00;99.90;;;;;;5056010;28;20055;-68
2022/09/27 10:53:34;;;;;;;1.30;0.20;;;12.20;99.90;;;;;;5081149;28;20079;-67
2022/09/27 10:56:00;;;;;;;1.33;0.30;;;12.40;99.90;;;;;;5074237;28;20039;-68
2022/09/27 10:58:36;;;;;;;1.38;0.40;;;12.60;99.90;;;;;;5077622;28;20040;-69
2022/09/27 11:01:05;;;;;;;3.30;0.55;;;12.70;99.90;;;;;;5075463;28;20101;-68
2022/09/27 11:03:35;;;;;;;0.83;0.60;;;12.70;99.90;;;;;;5095992;28;20435;-68
2022/09/27 11:06:23;;;;;;;1.27;0.40;;;12.90;99.90;;;;;;5095652;28;20079;-68
2022/09/27 11:08:54;;;;;;;1.67;0.50;;;13.20;99.90;;;;;;5076500;28;20094;-69
2022/09/27 11:11:26;;;;;;;1.50;0.25;;;13.50;99.90;;;;;;5077410;28;20046;-70
2022/09/27 11:14:03;;;;;;;1.98;0.40;;;13.60;99.90;;;;;;5095408;28;20059;-69
2022/09/27 11:16:44;;;;;;;3.10;0.52;;;13.80;99.90;;;;;;5077355;28;20082;-69
2022/09/27 11:19:18;;;;;;;1.13;0.28;;;14.00;99.90;;;;;;5095388;28;20046;-69
2022/09/27 11:22:09;;;;;;;4.78;0.32;;;14.00;99.90;;;;;;5095394;28;20047;-69
2022/09/27 11:25:04;;;;;;;1.77;0.32;;;13.90;99.90;;;;;;5077419;28;20047;-69
2022/09/27 11:27:48;;;;;;;3.05;0.50;;;13.90;99.90;;;;;;5055901;28;20040;-70
2022/09/27 11:30:18;;;;;;;3.65;0.50;;;13.90;99.90;;;;;;5058183;28;20506;-70
2022/09/27 11:33:23;;;;;;;2.65;0.50;;;14.00;99.90;;;;;;5095097;28;20476;-70
2022/09/27 11:36:06;;;;;;;2.08;0.57;;;14.00;99.90;;;;;;5077056;28;20040;-70
2022/09/27 11:39:05;;;;;;;3.00;0.50;;;14.00;99.90;;;;;;5076976;28;20042;-70
2022/09/27 11:41:32;;;;;;;5.95;0.82;;;13.90;99.90;;;;;;5095024;28;20044;-70
2022/09/27 11:44:01;;;;;;;3.03;0.70;;;13.70;99.90;;;;;;5094946;28;20487;-70
2022/09/27 11:46:29;;;;;;;6.72;0.88;;;13.50;99.90;;;;;;5095220;28;20396;-69
2022/09/27 11:49:08;;;;;;;5.00;0.75;;;13.30;99.90;;;;;;5095153;28;20062;-68
2022/09/27 11:51:53;;;;;;;5.87;0.80;;;13.20;99.90;;;;;;5094833;28;20109;-68
2022/09/27 11:54:25;;;;;;;3.65;0.80;;;13.00;99.90;;;;;;5094677;28;20097;-69
2022/09/27 11:57:17;;;;;;;3.60;0.80;;;12.90;99.90;;;;;;5076533;28;20516;-69
2022/09/27 12:00:01;;;;;;;3.42;0.50;;;12.80;99.90;;;;;;5047913;28;20094;-69
2022/09/27 12:02:44;;;;;;;4.82;0.80;;;12.80;99.90;;;;;;5054600;28;20039;-69
2022/09/27 12:05:22;;;;;;;6.70;0.85;;;12.90;99.90;;;;;;5054759;28;20044;-69
2022/09/27 12:08:03;;;;;;;3.90;0.57;;;13.00;99.90;;;;;;5054920;28;20051;-69
2022/09/27 12:10:29;;;;;;;4.07;0.60;;;13.10;99.90;;;;;;5072568;28;20044;-69
2022/09/27 12:12:56;;;;;;;2.42;0.50;;;13.10;99.90;;;;;;5037775;28;20075;-69
2022/09/27 12:15:29;;;;;;;4.10;0.50;;;13.20;99.90;;;;;;5054689;28;20119;-69
2022/09/27 12:18:27;;;;;;;2.85;0.38;;;13.20;99.90;;;;;;5054560;28;20036;-69
2022/09/27 12:20:54;;;;;;;4.00;0.88;;;13.30;99.90;;;;;;5053879;28;20086;-69
2022/09/27 12:23:33;;;;;;;5.22;0.50;;;13.40;99.90;;;;;;5038057;28;20048;-69
2022/09/27 12:26:21;;;;;;;1.40;0.43;;;13.50;99.90;;;;;;5054766;28;20114;-69
2022/09/27 12:28:54;;;;;;;6.32;0.63;;;13.50;99.90;;;;;;5054371;28;20040;-69
2022/09/27 12:31:53;;;;;;;2.15;0.30;;;13.50;99.90;;;;;;5052503;28;20127;-69
2022/09/27 12:34:25;;;;;;;6.53;0.70;;;13.40;99.90;;;;;;5054271;28;20119;-69
2022/09/27 12:37:49;;;;;;;3.17;1.25;;;13.30;99.90;;;;;;5037928;28;20377;-69
2022/09/27 12:40:37;;;;;;;3.85;0.68;;;13.30;99.90;;;;;;4970654;28;20070;-68
2022/09/27 12:43:23;;;;;;;3.33;0.40;;;13.20;99.90;;;;;;4954589;28;20039;-68
2022/09/27 12:46:12;;;;;;;2.55;0.52;;;13.00;99.90;;;;;;5047192;28;20121;-68
2022/09/27 12:48:41;;;;;;;3.03;0.50;;;12.90;99.90;;;;;;5071833;28;20123;-68
2022/09/27 12:51:11;;;;;;;2.25;0.50;;;12.90;99.90;;;;;;5054139;28;20033;-68
2022/09/27 12:53:43;;;;;;;;;;;12.90;99.90;;;;;;5054363;28;20389;-68
2022/09/27 12:56:51;;;;;;;1.65;0.45;;;12.80;99.90;;;;;;5071873;28;19963;-68
2022/09/27 12:59:26;;;;;;;2.40;0.57;;;12.80;99.90;;;;;;5053186;28;20040;-69
2022/09/27 13:02:25;;;;;;;1.35;0.40;;;12.70;99.90;;;;;;5037299;28;20503;-69
2022/09/27 13:05:15;;;;;;;1.83;0.40;;;12.70;99.90;;;;;;5037118;28;20476;-68
2022/09/27 13:07:57;;;;;;;1.38;0.30;;;12.60;99.90;;;;;;5053776;28;20048;-69
2022/09/27 13:10:59;;;;;;;1.58;0.50;;;12.40;99.90;;;;;;5053755;28;20147;-69
2022/09/27 13:13:28;;;;;;;1.50;0.40;;;12.40;99.90;;;;;;4970021;28;20058;-69
2022/09/27 13:15:57;;;;;;;2.40;0.50;;;12.30;99.90;;;;;;5036109;28;20044;-69
2022/09/27 13:18:36;;;;;;;1.63;0.50;;;12.30;99.90;;;;;;5053883;28;20052;-69
2022/09/27 13:21:07;;;;;;;3.47;0.65;;;12.30;99.90;;;;;;5071598;28;20036;-69
2022/09/27 13:23:34;;;;;;;2.72;0.40;;;12.30;99.90;;;;;;5071451;28;20442;-69
2022/09/27 13:26:22;;;;;;;5.22;0.60;;;12.30;99.90;;;;;;5053291;28;20123;-69
2022/09/27 13:28:50;;;;;;;2.53;0.40;;;12.30;99.90;;;;;;5070822;28;20070;-68
2022/09/27 13:31:57;;;;;;;1.75;0.40;;;12.30;99.90;;;;;;5068887;28;20643;-68
2022/09/27 13:34:45;;;;;;;0.45;0.20;;;12.30;99.90;;;;;;5071204;28;20044;-68
2022/09/27 13:37:35;;;;;;;3.85;1.10;;;12.40;99.90;;;;;;5053613;28;20060;-67